Terminal Aerodrome Forecast
Issued by NWS

Current Version | Previous Version | Graphics & Text | Print | Product List | Glossary On
Versions: 1 2 3 4 5 6 7 8 9 10 11 12 13 14 15 16 17 18 19 20 21 22 23 24
529
FTUS41 KILN 220539
TAFLUK
TAF
KLUK 220539Z 2206/2306 00000KT P6SM BKN110
     FM220700 VRB02KT 3SM BR SCT080 OVC140
     FM221300 06003KT P6SM OVC080
     FM222000 06010KT P6SM VCSH OVC080
     FM230000 03010KT 5SM -SHRA BR OVC020=

USA.gov is the U.S. government's official web portal to all federal, state and local government web resources and services.